String Prairie, Texas
Current Conditions -  °F | °C
As of 9:15 AM on Tuesday 21 Oct 2014 (Local Time) from K3T5 Reporting Station
Clear Clear  
Wind Chill: 64°   Ceiling: Unl
Heat Index: 64°   Visibility: 7mi
Dew Point: 60°   Wind: 3mph
Humidity: 87%   Direction: 30°NNE
Pressure: 30.07"   Gusts: NA
Location:  29.8725°N, 97.3223°W
Report Text: K3T5 211415Z AUTO 03003KT 7SM CLR 18/16 A3007 RMK AO2 T01770155
Loading
Personal Weather Stations






























Interactive Weather Map
Tropical Storm Tracking
New forecast layout! Learn more

10-Day Weather Forecast

Advertisements
Track Severe Weather on mobile